createdAt,value
2017-10-24T00:01:42.584Z,14.37
2017-10-24T00:04:10.663Z,14.63
2017-10-24T00:06:39.550Z,13.33
2017-10-24T00:09:07.623Z,14.10
2017-10-24T00:11:35.722Z,12.30
2017-10-24T00:14:03.802Z,17.97
2017-10-24T00:16:31.902Z,15.30
2017-10-24T00:18:59.981Z,12.57
2017-10-24T00:21:28.079Z,18.43
2017-10-24T00:23:56.271Z,13.10
2017-10-24T00:26:25.132Z,18.03
2017-10-24T00:28:53.223Z,15.13
2017-10-24T00:31:21.321Z,14.90
2017-10-24T00:33:50.164Z,14.93
2017-10-24T00:36:18.262Z,15.60
2017-10-24T00:38:47.122Z,16.27
2017-10-24T00:41:15.226Z,18.40
2017-10-24T00:43:43.300Z,19.07
2017-10-24T00:46:11.402Z,14.27
2017-10-24T00:48:40.252Z,14.40
2017-10-24T00:51:08.340Z,19.30
2017-10-24T00:53:37.214Z,14.83
2017-10-24T00:56:05.303Z,15.73
2017-10-24T00:58:34.397Z,14.10
2017-10-24T01:01:02.478Z,14.83
2017-10-24T01:03:31.348Z,15.10
2017-10-24T01:05:59.437Z,20.40
2017-10-24T01:08:27.516Z,15.07
2017-10-24T01:10:56.370Z,19.07
2017-10-24T01:13:24.473Z,15.30
2017-10-24T01:15:52.550Z,16.67
2017-10-24T01:18:20.636Z,17.73
2017-10-24T01:20:49.475Z,19.07
2017-10-24T01:23:17.565Z,19.13
2017-10-24T01:25:45.641Z,20.07
2017-10-24T01:28:13.885Z,18.17
2017-10-24T01:30:41.972Z,19.43
2017-10-24T01:33:10.060Z,15.33
2017-10-24T01:35:38.140Z,20.00
2017-10-24T01:38:06.226Z,23.23
2017-10-24T01:40:35.081Z,18.30
2017-10-24T01:43:03.173Z,21.40
2017-10-24T01:45:31.253Z,22.00
2017-10-24T01:47:59.340Z,19.03
2017-10-24T01:50:28.191Z,16.30
2017-10-24T01:52:56.298Z,17.43
2017-10-24T01:55:25.164Z,17.10
2017-10-24T01:57:53.390Z,15.50
2017-10-24T02:00:21.471Z,18.30
2017-10-24T02:02:49.588Z,19.30
2017-10-24T02:05:17.746Z,18.60
2017-10-24T02:07:45.850Z,15.80
2017-10-24T02:10:14.723Z,24.40
2017-10-24T02:12:42.811Z,20.27
2017-10-24T02:15:11.909Z,18.73
2017-10-24T02:17:39.984Z,15.90
2017-10-24T02:20:08.079Z,21.97
2017-10-24T02:22:36.174Z,22.10
2017-10-24T02:25:05.017Z,15.37
2017-10-24T02:27:33.096Z,16.27
2017-10-24T02:30:01.188Z,16.80
2017-10-24T02:32:30.034Z,16.80
2017-10-24T02:34:58.115Z,15.47
2017-10-24T02:37:26.209Z,21.33
2017-10-24T02:39:55.080Z,14.97
2017-10-24T02:42:23.163Z,17.93
2017-10-24T02:44:51.243Z,18.63
2017-10-24T02:47:20.129Z,17.63
2017-10-24T02:49:48.214Z,13.00
2017-10-24T02:52:17.064Z,13.60
2017-10-24T02:54:45.156Z,11.53
2017-10-24T02:57:13.280Z,15.57
2017-10-24T02:59:41.376Z,18.30
2017-10-24T03:02:09.460Z,18.93
2017-10-24T03:04:37.568Z,17.87
2017-10-24T03:07:06.440Z,20.07
2017-10-24T03:09:34.525Z,16.70
2017-10-24T03:12:02.607Z,17.03
2017-10-24T03:14:31.465Z,18.00
2017-10-24T03:16:59.555Z,15.30
2017-10-24T03:19:27.653Z,19.73
2017-10-24T03:21:55.755Z,16.23
2017-10-24T03:24:23.851Z,21.73
2017-10-24T03:26:51.940Z,19.43
2017-10-24T03:29:20.020Z,20.27
2017-10-24T03:31:48.114Z,19.87
2017-10-24T03:34:16.976Z,16.83
2017-10-24T03:36:45.055Z,16.60
2017-10-24T03:39:13.145Z,16.63
2017-10-24T03:41:42.000Z,17.87
2017-10-24T03:44:10.098Z,17.77
2017-10-24T03:46:38.199Z,18.13
2017-10-24T03:49:06.307Z,22.97
2017-10-24T03:51:34.424Z,22.43
2017-10-24T03:54:03.263Z,19.40
2017-10-24T03:56:31.442Z,18.83
2017-10-24T03:58:59.523Z,25.47
2017-10-24T04:01:27.636Z,24.13
2017-10-24T04:03:56.489Z,20.70
2017-10-24T04:06:24.596Z,20.97
2017-10-24T04:08:53.452Z,26.10
2017-10-24T04:11:21.546Z,28.00
2017-10-24T04:13:49.637Z,25.40
2017-10-24T04:16:18.495Z,20.77
2017-10-24T04:18:46.580Z,22.57
2017-10-24T04:21:14.681Z,19.53
2017-10-24T04:23:43.524Z,19.77
2017-10-24T04:26:11.604Z,21.87
2017-10-24T04:28:39.696Z,23.23
2017-10-24T04:31:07.777Z,23.50
2017-10-24T04:33:36.624Z,25.60
2017-10-24T04:36:04.716Z,23.30
2017-10-24T04:38:32.801Z,28.80
2017-10-24T04:41:00.892Z,24.87
2017-10-24T04:43:29.756Z,27.23
2017-10-24T04:45:57.849Z,28.73
2017-10-24T04:48:26.704Z,24.43
2017-10-24T04:50:54.784Z,27.07
2017-10-24T04:53:22.875Z,30.13
2017-10-24T04:55:51.024Z,30.90
2017-10-24T04:58:19.830Z,25.57
2017-10-24T05:00:47.921Z,22.90
2017-10-24T05:03:15.992Z,31.87
2017-10-24T05:05:44.084Z,25.30
2017-10-24T05:08:12.945Z,28.80
2017-10-24T05:10:41.025Z,29.40
2017-10-24T05:13:09.099Z,26.80
2017-10-24T05:15:37.185Z,21.90
2017-10-24T05:18:06.042Z,23.20
2017-10-24T05:20:34.124Z,28.30
2017-10-24T05:23:02.203Z,25.80
2017-10-24T05:25:30.288Z,34.20
2017-10-24T05:27:59.182Z,40.63
2017-10-24T05:30:28.066Z,40.70
2017-10-24T05:32:56.144Z,32.50
2017-10-24T05:35:25.017Z,36.60
2017-10-24T05:37:53.099Z,35.60
2017-10-24T05:40:21.180Z,32.30
2017-10-24T05:42:50.040Z,29.47
2017-10-24T05:45:18.134Z,30.93
2017-10-24T05:47:46.271Z,35.23
2017-10-24T05:50:14.386Z,34.10
2017-10-24T05:52:43.247Z,34.10
2017-10-24T05:55:11.331Z,35.07
2017-10-24T05:57:39.408Z,32.07
2017-10-24T06:00:07.493Z,27.60
2017-10-24T06:02:35.584Z,32.03
2017-10-24T06:05:05.228Z,29.20
2017-10-24T06:07:33.322Z,33.20
2017-10-24T06:10:01.626Z,32.97
2017-10-24T06:12:29.713Z,29.30
2017-10-24T06:14:58.562Z,36.60
2017-10-24T06:17:26.672Z,29.83
2017-10-24T06:19:55.668Z,33.07
2017-10-24T06:22:24.517Z,31.27
2017-10-24T06:24:52.612Z,29.90
2017-10-24T06:27:20.687Z,33.20
2017-10-24T06:29:48.771Z,31.27
2017-10-24T06:32:17.644Z,33.10
2017-10-24T06:34:45.772Z,30.57
2017-10-24T06:37:13.856Z,36.10
2017-10-24T06:39:41.961Z,223.77
2017-10-24T06:42:10.077Z,216.67
2017-10-24T06:44:38.168Z,108.60
2017-10-24T06:47:06.249Z,33.40
2017-10-24T06:49:34.345Z,21.80
2017-10-24T06:52:02.437Z,21.23
2017-10-24T06:54:31.304Z,30.00
2017-10-24T06:56:59.400Z,25.53
2017-10-24T06:59:27.486Z,21.30
2017-10-24T07:01:56.349Z,23.90
2017-10-24T07:04:24.444Z,24.90
2017-10-24T07:06:52.530Z,23.07
2017-10-24T07:09:21.401Z,24.87
2017-10-24T07:11:49.477Z,24.37
2017-10-24T07:14:17.568Z,25.20
2017-10-24T07:16:45.677Z,28.17
2017-10-24T07:19:14.523Z,26.70
2017-10-24T07:21:43.388Z,26.70
2017-10-24T07:24:11.529Z,27.90
2017-10-24T07:26:39.611Z,24.50
2017-10-24T07:29:07.698Z,42.73
2017-10-24T07:31:35.786Z,29.87
2017-10-24T07:34:03.863Z,31.10
2017-10-24T07:36:31.956Z,33.17
2017-10-24T07:39:00.846Z,28.37
2017-10-24T07:41:29.703Z,32.93
2017-10-24T07:43:57.788Z,27.17
2017-10-24T07:46:25.884Z,26.20
2017-10-24T07:48:54.737Z,30.20
2017-10-24T07:51:22.830Z,32.57
2017-10-24T07:53:50.909Z,30.73
2017-10-24T07:56:19.008Z,29.73
2017-10-24T07:58:47.075Z,36.03
2017-10-24T08:01:15.175Z,25.93
2017-10-24T08:03:44.035Z,27.40
2017-10-24T08:06:12.908Z,24.07
2017-10-24T08:08:40.991Z,27.00
2017-10-24T08:11:09.844Z,27.90
2017-10-24T08:13:37.927Z,24.73
2017-10-24T08:16:06.020Z,27.50
2017-10-24T08:18:34.895Z,27.57
2017-10-24T08:21:02.977Z,25.50
2017-10-24T08:23:31.073Z,25.43
2017-10-24T08:25:59.918Z,23.37
2017-10-24T08:28:28.015Z,27.10
2017-10-24T08:30:56.088Z,25.50
2017-10-24T08:33:24.960Z,27.70
2017-10-24T08:35:53.048Z,25.07
2017-10-24T08:38:21.149Z,26.60
2017-10-24T08:40:49.288Z,32.67
2017-10-24T08:43:17.388Z,28.37
2017-10-24T08:45:46.238Z,28.90
2017-10-24T08:48:14.336Z,29.00
2017-10-24T08:50:42.414Z,31.40
2017-10-24T08:53:11.301Z,29.30
2017-10-24T08:55:39.384Z,23.97
2017-10-24T08:58:08.232Z,26.87
2017-10-24T09:00:36.336Z,29.13
2017-10-24T09:03:04.414Z,26.47
2017-10-24T09:05:33.284Z,25.37
2017-10-24T09:08:01.392Z,27.40
2017-10-24T09:14:17.803Z,25.00
2017-10-24T09:16:49.275Z,24.10
2017-10-24T09:22:24.466Z,26.27
2017-10-24T09:24:52.561Z,24.00
2017-10-24T09:27:20.656Z,24.93
2017-10-24T09:29:48.747Z,24.60
2017-10-24T09:32:17.615Z,19.40
2017-10-24T09:34:45.706Z,27.27
2017-10-24T09:37:14.567Z,24.50
2017-10-24T09:39:42.658Z,21.57
2017-10-24T09:42:10.757Z,23.70
2017-10-24T09:44:38.850Z,22.13
2017-10-24T09:47:06.952Z,24.90
2017-10-24T09:49:35.041Z,22.57
2017-10-24T09:52:03.139Z,14.77
2017-10-24T09:54:42.413Z,9.27
2017-10-24T09:57:10.518Z,8.37
2017-10-24T09:59:38.603Z,9.53
2017-10-24T10:02:07.468Z,10.47
2017-10-24T10:04:35.558Z,9.80
2017-10-24T10:07:04.444Z,8.03
2017-10-24T10:09:32.533Z,7.30
2017-10-24T10:12:00.620Z,6.30
2017-10-24T10:14:29.485Z,8.40
2017-10-24T10:16:57.562Z,7.70
2017-10-24T10:19:25.645Z,7.10
2017-10-24T10:21:54.507Z,9.00
2017-10-24T10:24:36.340Z,7.17
2017-10-24T10:27:05.215Z,6.00
2017-10-24T10:29:33.294Z,8.10
2017-10-24T10:32:02.149Z,9.17
2017-10-24T10:34:30.240Z,6.40
2017-10-24T10:37:00.137Z,9.50
2017-10-24T10:39:28.230Z,9.73
2017-10-24T10:41:56.317Z,8.30
2017-10-24T10:44:25.176Z,10.77
2017-10-24T10:46:53.284Z,12.47
2017-10-24T10:49:21.432Z,13.20
2017-10-24T10:51:49.517Z,12.70
2017-10-24T10:54:17.605Z,10.27
2017-10-24T10:56:45.697Z,8.60
2017-10-24T10:59:14.550Z,8.00
2017-10-24T11:01:42.634Z,7.23
2017-10-24T11:04:11.512Z,9.10
2017-10-24T11:06:39.604Z,12.37
2017-10-24T11:09:08.469Z,7.40
2017-10-24T11:11:36.547Z,8.43
2017-10-24T11:14:04.676Z,10.60
2017-10-24T11:16:32.765Z,8.70
2017-10-24T11:19:00.849Z,8.97
2017-10-24T11:21:28.929Z,9.70
2017-10-24T11:23:57.024Z,11.57
2017-10-24T11:26:25.095Z,9.03
2017-10-24T11:28:53.168Z,9.10
2017-10-24T11:31:21.273Z,7.40
2017-10-24T11:33:50.132Z,7.80
2017-10-24T11:36:18.196Z,7.70
2017-10-24T11:38:46.299Z,6.87
2017-10-24T11:41:15.150Z,7.13
2017-10-24T11:43:43.256Z,8.13
2017-10-24T11:46:12.113Z,7.73
2017-10-24T11:48:40.204Z,6.27
2017-10-24T11:51:08.276Z,7.33
2017-10-24T11:53:36.368Z,7.03
2017-10-24T11:56:05.208Z,7.53
2017-10-24T11:58:33.297Z,5.73
2017-10-24T12:01:01.382Z,5.97
2017-10-24T12:03:29.512Z,5.50
2017-10-24T12:05:57.598Z,6.27
2017-10-24T12:08:25.689Z,6.27
2017-10-24T12:10:53.799Z,8.93
2017-10-24T12:13:22.652Z,5.30
2017-10-24T12:15:50.732Z,5.00
2017-10-24T12:18:18.832Z,5.17
2017-10-24T12:20:47.720Z,6.90
2017-10-24T12:23:16.589Z,5.43
2017-10-24T12:25:44.671Z,5.87
2017-10-24T12:28:12.757Z,5.43
2017-10-24T12:30:41.609Z,5.90
2017-10-24T12:33:09.695Z,6.30
2017-10-24T12:35:37.784Z,6.83
2017-10-24T12:38:06.673Z,8.10
2017-10-24T12:40:34.753Z,7.73
2017-10-24T12:43:03.629Z,5.10
2017-10-24T12:45:31.718Z,6.23
2017-10-24T12:48:00.593Z,7.23
2017-10-24T12:50:39.396Z,9.40
2017-10-24T12:53:07.472Z,4.10
2017-10-24T12:55:35.572Z,5.17
2017-10-24T12:58:08.425Z,6.93
2017-10-24T13:00:36.542Z,4.63
2017-10-24T13:03:04.658Z,5.60
2017-10-24T13:05:32.723Z,5.43
2017-10-24T13:08:00.801Z,5.03
2017-10-24T13:10:28.891Z,5.37
2017-10-24T13:12:57.283Z,4.83
2017-10-24T13:15:25.372Z,5.00
2017-10-24T13:17:54.229Z,8.63
2017-10-24T13:20:22.309Z,6.30
2017-10-24T13:22:50.389Z,4.90
2017-10-24T13:25:18.488Z,6.27
2017-10-24T13:27:46.558Z,5.20
2017-10-24T13:30:15.452Z,4.10
2017-10-24T13:32:44.309Z,5.20
2017-10-24T13:35:12.416Z,4.87
2017-10-24T13:37:41.286Z,4.30
2017-10-24T13:40:09.379Z,4.90
2017-10-24T13:42:38.372Z,4.20
2017-10-24T13:45:07.249Z,4.80
2017-10-24T13:47:35.356Z,16.57
2017-10-24T13:50:04.231Z,8.13
2017-10-24T13:52:33.072Z,5.23
2017-10-24T13:55:01.166Z,5.57
2017-10-24T13:57:29.249Z,4.60
2017-10-24T13:59:57.336Z,5.07
2017-10-24T14:02:25.417Z,5.37
2017-10-24T14:04:59.947Z,5.90
2017-10-24T14:07:34.372Z,6.23
2017-10-24T14:10:08.896Z,4.70
2017-10-24T14:12:37.742Z,7.87
2017-10-24T14:15:05.832Z,6.50
2017-10-24T14:17:33.911Z,6.10
2017-10-24T14:20:01.996Z,6.70
2017-10-24T14:22:30.844Z,6.03
2017-10-24T14:24:58.939Z,4.00
2017-10-24T14:27:27.024Z,4.40
2017-10-24T14:29:55.109Z,5.13
2017-10-24T14:32:23.956Z,6.90
2017-10-24T14:34:52.065Z,5.13
2017-10-24T14:37:20.909Z,8.03
2017-10-24T14:39:49.009Z,4.33
2017-10-24T14:42:17.088Z,5.23
2017-10-24T14:44:45.175Z,4.80
2017-10-24T14:47:14.030Z,4.90
2017-10-24T14:49:42.103Z,6.17
2017-10-24T14:52:10.192Z,5.47
2017-10-24T14:54:38.275Z,5.13
2017-10-24T14:57:07.142Z,6.60
2017-10-24T14:59:35.231Z,4.60
2017-10-24T15:02:03.318Z,5.87
2017-10-24T15:04:32.171Z,6.30
2017-10-24T15:07:00.243Z,8.13
2017-10-24T15:09:28.336Z,9.30
2017-10-24T15:11:56.411Z,8.17
2017-10-24T15:14:25.344Z,7.80
2017-10-24T15:16:53.438Z,7.23
2017-10-24T15:19:21.523Z,6.97
2017-10-24T15:21:49.609Z,6.90
2017-10-24T15:24:17.688Z,7.20
2017-10-24T15:26:45.887Z,7.07
2017-10-24T15:29:14.758Z,6.57
2017-10-24T15:31:42.840Z,7.17
2017-10-24T15:34:10.912Z,9.73
2017-10-24T15:36:39.013Z,9.87
2017-10-24T15:39:07.852Z,8.37
2017-10-24T15:41:35.952Z,8.87
2017-10-24T15:44:04.047Z,10.37
2017-10-24T15:46:32.904Z,12.27
2017-10-24T15:49:00.984Z,9.73
2017-10-24T15:51:29.060Z,8.80
2017-10-24T15:53:57.949Z,8.97
2017-10-24T15:56:26.021Z,9.33
2017-10-24T15:58:54.105Z,9.83
2017-10-24T16:01:22.973Z,9.70
2017-10-24T16:03:51.049Z,9.03
2017-10-24T16:06:19.151Z,9.43
2017-10-24T16:08:47.995Z,10.53
2017-10-24T16:11:16.095Z,10.40
2017-10-24T16:13:44.946Z,8.03
2017-10-24T16:16:13.116Z,9.13
2017-10-24T16:18:41.284Z,10.40
2017-10-24T16:21:09.381Z,10.17
2017-10-24T16:23:37.470Z,11.30
2017-10-24T16:26:05.557Z,11.87
2017-10-24T16:28:33.637Z,16.93
2017-10-24T16:31:02.494Z,11.93
2017-10-24T16:33:30.601Z,14.57
2017-10-24T16:35:58.712Z,15.47
2017-10-24T16:38:26.788Z,12.30
2017-10-24T16:40:54.881Z,12.27
2017-10-24T16:43:22.972Z,12.13
2017-10-24T16:45:51.070Z,12.00
2017-10-24T16:48:19.920Z,12.73
2017-10-24T16:50:48.209Z,11.07
2017-10-24T16:53:16.294Z,16.07
2017-10-24T16:55:44.381Z,15.73
2017-10-24T16:58:13.259Z,14.20
2017-10-24T17:00:41.352Z,14.40
2017-10-24T17:03:10.200Z,17.27
2017-10-24T17:05:38.298Z,20.10
2017-10-24T17:08:06.381Z,17.60
2017-10-24T17:10:35.260Z,17.23
2017-10-24T17:13:04.114Z,16.50
2017-10-24T17:15:32.216Z,16.40
2017-10-24T17:18:00.303Z,19.83
2017-10-24T17:20:29.185Z,16.40
2017-10-24T17:22:57.272Z,16.40
2017-10-24T17:25:26.142Z,17.03
2017-10-24T17:27:54.237Z,18.50
2017-10-24T17:30:23.113Z,17.97
2017-10-24T17:32:51.209Z,16.83
2017-10-24T17:35:20.072Z,16.77
2017-10-24T17:37:48.211Z,16.23
2017-10-24T17:40:16.316Z,18.80
2017-10-24T17:42:44.400Z,16.27
2017-10-24T17:45:12.513Z,14.73
2017-10-24T17:47:40.590Z,13.33
2017-10-24T17:50:08.683Z,14.10
2017-10-24T17:52:36.880Z,15.20
2017-10-24T17:55:04.965Z,18.00
2017-10-24T17:57:33.062Z,17.73
2017-10-24T18:00:01.905Z,23.27
2017-10-24T18:02:30.004Z,22.13
2017-10-24T18:04:58.084Z,23.10
2017-10-24T18:07:26.951Z,20.63
2017-10-24T18:09:55.037Z,18.57
2017-10-24T18:12:23.136Z,24.33
2017-10-24T18:14:51.979Z,26.00
2017-10-24T18:17:20.068Z,22.00
2017-10-24T18:19:48.151Z,21.70
2017-10-24T18:22:16.227Z,23.80
2017-10-24T18:24:45.073Z,21.87
2017-10-24T18:27:13.155Z,20.40
2017-10-24T18:29:41.274Z,21.57
2017-10-24T18:32:10.133Z,21.00
2017-10-24T18:34:38.260Z,23.83
2017-10-24T18:37:06.360Z,27.37
2017-10-24T18:39:34.444Z,26.70
2017-10-24T18:42:02.560Z,25.40
2017-10-24T18:44:31.424Z,22.50
2017-10-24T18:46:59.553Z,27.20
2017-10-24T18:49:27.678Z,22.50
2017-10-24T18:51:55.778Z,24.13
2017-10-24T18:54:24.643Z,22.50
2017-10-24T18:56:52.744Z,26.03
2017-10-24T18:59:20.901Z,21.73
2017-10-24T19:01:49.029Z,22.80
2017-10-24T19:04:17.116Z,20.33
2017-10-24T19:06:45.260Z,28.23
2017-10-24T19:09:13.373Z,19.43
2017-10-24T19:11:42.100Z,23.50
2017-10-24T19:14:10.176Z,19.63
2017-10-24T19:16:38.293Z,19.67
2017-10-24T19:19:06.380Z,22.70
2017-10-24T19:21:34.481Z,26.57
2017-10-24T19:24:03.324Z,23.83
2017-10-24T19:26:31.426Z,20.70
2017-10-24T19:28:59.500Z,22.97
2017-10-24T19:31:27.585Z,30.30
2017-10-24T19:33:56.433Z,21.27
2017-10-24T19:36:24.523Z,24.20
2017-10-24T19:38:52.614Z,24.47
2017-10-24T19:41:20.721Z,18.03
2017-10-24T19:43:48.812Z,21.83
2017-10-24T19:46:16.927Z,18.30
2017-10-24T19:48:44.995Z,18.87
2017-10-24T19:51:13.078Z,20.67
2017-10-24T19:53:41.919Z,19.50
2017-10-24T19:56:10.021Z,18.87
2017-10-24T19:58:38.281Z,18.30
2017-10-24T20:01:06.369Z,18.83
2017-10-24T20:03:34.452Z,19.97
2017-10-24T20:06:02.536Z,18.80
2017-10-24T20:08:31.393Z,20.33
2017-10-24T20:10:59.490Z,22.37
2017-10-24T20:13:27.563Z,29.90
2017-10-24T20:15:55.657Z,24.03
2017-10-24T20:18:24.515Z,18.00
2017-10-24T20:20:52.599Z,17.47
2017-10-24T20:23:20.673Z,16.73
2017-10-24T20:25:48.755Z,20.50
2017-10-24T20:28:17.596Z,17.30
2017-10-24T20:30:45.685Z,18.93
2017-10-24T20:33:13.780Z,21.13
2017-10-24T20:35:41.856Z,22.67
2017-10-24T20:38:10.716Z,20.53
2017-10-24T20:40:38.813Z,20.37
2017-10-24T20:43:06.913Z,19.50
2017-10-24T20:45:35.748Z,28.63
2017-10-24T20:48:03.844Z,18.13
2017-10-24T20:50:31.931Z,21.20
2017-10-24T20:53:00.797Z,21.73
2017-10-24T20:55:28.881Z,60.67
2017-10-24T20:57:56.960Z,18.73
2017-10-24T21:00:25.036Z,21.10
2017-10-24T21:02:53.124Z,18.97
2017-10-24T21:05:21.974Z,15.63
2017-10-24T21:07:50.067Z,14.90
2017-10-24T21:10:18.143Z,14.30
2017-10-24T21:12:46.241Z,13.27
2017-10-24T21:15:14.342Z,21.83
2017-10-24T21:17:42.438Z,17.20
2017-10-24T21:20:10.535Z,13.87
2017-10-24T21:22:38.637Z,13.90
2017-10-24T21:25:06.734Z,18.43
2017-10-24T21:27:35.580Z,31.77
2017-10-24T21:30:04.434Z,16.50
2017-10-24T21:32:32.552Z,12.97
2017-10-24T21:35:01.398Z,13.07
2017-10-24T21:37:29.495Z,12.97
2017-10-24T21:39:57.571Z,14.03
2017-10-24T21:42:25.658Z,16.40
2017-10-24T21:44:54.518Z,15.00
2017-10-24T21:47:22.639Z,18.77
2017-10-24T21:49:50.740Z,14.20
2017-10-24T21:52:18.826Z,13.33
2017-10-24T21:54:46.905Z,18.23
2017-10-24T21:57:15.004Z,18.00
2017-10-24T21:59:43.845Z,15.87
2017-10-24T22:02:12.724Z,18.07
2017-10-24T22:04:41.584Z,21.60
2017-10-24T22:07:10.431Z,21.23
2017-10-24T22:09:38.530Z,20.50
2017-10-24T22:12:06.618Z,24.10
2017-10-24T22:14:34.702Z,20.70
2017-10-24T22:17:03.556Z,17.43
2017-10-24T22:19:31.645Z,21.60
2017-10-24T22:21:59.727Z,21.73
2017-10-24T22:24:28.575Z,18.10
2017-10-24T22:26:56.679Z,17.50
2017-10-24T22:29:24.753Z,16.60
2017-10-24T22:31:53.611Z,19.70
2017-10-24T22:34:21.713Z,17.03
2017-10-24T22:36:49.793Z,21.47
2017-10-24T22:39:18.631Z,18.30
2017-10-24T22:41:46.740Z,19.33
2017-10-24T22:44:14.828Z,21.80
2017-10-24T22:46:43.684Z,20.77
2017-10-24T22:49:11.765Z,20.87
2017-10-24T22:51:39.856Z,19.50
2017-10-24T22:54:07.941Z,19.70
2017-10-24T22:56:36.793Z,24.37
2017-10-24T22:59:04.874Z,17.90
2017-10-24T23:01:32.951Z,26.70
2017-10-24T23:04:01.028Z,21.67
2017-10-24T23:06:29.107Z,25.90
2017-10-24T23:08:57.180Z,24.07
2017-10-24T23:11:25.264Z,23.23
2017-10-24T23:13:54.109Z,20.30
2017-10-24T23:16:22.189Z,25.00
2017-10-24T23:18:50.280Z,23.33
2017-10-24T23:21:18.359Z,23.07
2017-10-24T23:23:46.439Z,26.43
2017-10-24T23:26:14.515Z,23.70
2017-10-24T23:28:43.403Z,25.57
2017-10-24T23:31:12.259Z,25.83
2017-10-24T23:33:40.335Z,23.13
2017-10-24T23:36:08.434Z,22.30
2017-10-24T23:38:36.520Z,24.90
2017-10-24T23:41:05.377Z,25.20
2017-10-24T23:43:33.459Z,32.27
2017-10-24T23:46:01.544Z,26.23
2017-10-24T23:48:29.628Z,25.83
2017-10-24T23:50:58.479Z,29.93
2017-10-24T23:53:26.568Z,28.83
2017-10-24T23:55:54.656Z,32.70
2017-10-24T23:58:22.735Z,27.60
